EPWA

Warsaw Chopin Airport

Warsaw, Poland
METAR EPWA 161000Z 30007KT 5000 BR OVC004 02/01 Q1002 TEMPO 3000 BR
Observed Flight Rules
Dec-16 @ 10:00 UTC (48 minutes ago) Instrument Flight Rules
Wind Visibility Clouds Conditions
300° at 7 knots 5,005 meters
  • Overcast at 400' AGL
  • Mist
Temperatures Readings
Current 2°C / 36°F
Dewpoint 1°C / 34°F
Humidity 93%
Altimeter 29.59" Hg
Pressure 1002 hPa
Elevation 107
METAR EPWA 161000Z 30007KT 5000 BR OVC004 02/01 Q1002 TEMPO 3000 BR
Observed Flight Rules
Dec-16 @ 10:00 UTC
(48 minutes ago)
LIFR
Wind Visibility
300° at 7 knots 5,005 meters
Clouds
  • Overcast at 400' AGL
Conditions
  • Mist
Temperature Dewpoint
2°C / 36°F 1°C / 34°F
Humidity Altimeter Pressure
93% 29.59" Hg 1002 hPa